sensor_id;sensor_type;location;lat;lon;timestamp;temperature;humidity
8643;DHT22;4359;49.358;11.256;2024-03-08T00:01:48;0.40;99.90
8643;DHT22;4359;49.358;11.256;2024-03-08T00:04:13;0.40;99.90
8643;DHT22;4359;49.358;11.256;2024-03-08T00:06:41;0.50;99.90
8643;DHT22;4359;49.358;11.256;2024-03-08T00:09:07;0.50;99.90
8643;DHT22;4359;49.358;11.256;2024-03-08T00:11:34;0.50;99.90
8643;DHT22;4359;49.358;11.256;2024-03-08T00:14:00;0.60;99.90
8643;DHT22;4359;49.358;11.256;2024-03-08T00:16:26;0.50;99.90
8643;DHT22;4359;49.358;11.256;2024-03-08T00:18:51;0.50;99.90
8643;DHT22;4359;49.358;11.256;2024-03-08T00:21:17;0.50;99.90
8643;DHT22;4359;49.358;11.256;2024-03-08T00:23:42;0.40;99.90
8643;DHT22;4359;49.358;11.256;2024-03-08T00:26:08;0.30;99.90
8643;DHT22;4359;49.358;11.256;2024-03-08T00:28:34;0.20;99.90
8643;DHT22;4359;49.358;11.256;2024-03-08T00:31:00;0.20;99.90
8643;DHT22;4359;49.358;11.256;2024-03-08T00:33:25;0.20;99.90
8643;DHT22;4359;49.358;11.256;2024-03-08T00:35:53;0.20;99.90
8643;DHT22;4359;49.358;11.256;2024-03-08T00:38:19;0.20;99.90
8643;DHT22;4359;49.358;11.256;2024-03-08T00:40:44;0.10;99.90
8643;DHT22;4359;49.358;11.256;2024-03-08T00:43:10;0.00;99.90
8643;DHT22;4359;49.358;11.256;2024-03-08T00:45:36;-0.10;99.90
8643;DHT22;4359;49.358;11.256;2024-03-08T00:48:03;-0.20;99.90
8643;DHT22;4359;49.358;11.256;2024-03-08T00:50:29;-0.20;99.90
8643;DHT22;4359;49.358;11.256;2024-03-08T00:52:54;-0.20;99.90
8643;DHT22;4359;49.358;11.256;2024-03-08T00:55:20;-0.40;99.90
8643;DHT22;4359;49.358;11.256;2024-03-08T00:57:45;-0.50;99.90
8643;DHT22;4359;49.358;11.256;2024-03-08T01:00:12;-0.60;99.90
8643;DHT22;4359;49.358;11.256;2024-03-08T01:02:41;-0.70;99.90
8643;DHT22;4359;49.358;11.256;2024-03-08T01:05:07;-0.70;99.90
8643;DHT22;4359;49.358;11.256;2024-03-08T01:07:34;-0.60;99.90
8643;DHT22;4359;49.358;11.256;2024-03-08T01:10:01;-0.60;99.90
8643;DHT22;4359;49.358;11.256;2024-03-08T01:12:26;-0.60;99.90
8643;DHT22;4359;49.358;11.256;2024-03-08T01:14:52;-0.60;99.90
8643;DHT22;4359;49.358;11.256;2024-03-08T01:17:18;-0.70;99.90
8643;DHT22;4359;49.358;11.256;2024-03-08T01:19:43;-0.90;99.90
8643;DHT22;4359;49.358;11.256;2024-03-08T01:22:10;-1.00;99.90
8643;DHT22;4359;49.358;11.256;2024-03-08T01:24:36;-1.10;99.90
8643;DHT22;4359;49.358;11.256;2024-03-08T01:27:03;-1.10;99.90
8643;DHT22;4359;49.358;11.256;2024-03-08T01:29:29;-1.20;99.90
8643;DHT22;4359;49.358;11.256;2024-03-08T01:31:57;-1.30;99.90
8643;DHT22;4359;49.358;11.256;2024-03-08T01:34:25;-1.40;99.90
8643;DHT22;4359;49.358;11.256;2024-03-08T01:36:53;-1.40;99.90
8643;DHT22;4359;49.358;11.256;2024-03-08T01:39:21;-1.40;99.90
8643;DHT22;4359;49.358;11.256;2024-03-08T01:41:47;-1.50;99.90
8643;DHT22;4359;49.358;11.256;2024-03-08T01:44:13;-1.60;99.90
8643;DHT22;4359;49.358;11.256;2024-03-08T01:46:44;-1.60;99.90
8643;DHT22;4359;49.358;11.256;2024-03-08T01:49:10;-1.70;99.90
8643;DHT22;4359;49.358;11.256;2024-03-08T01:51:38;-1.80;99.90
8643;DHT22;4359;49.358;11.256;2024-03-08T01:54:05;-1.90;99.90
8643;DHT22;4359;49.358;11.256;2024-03-08T01:56:32;-2.00;99.90
8643;DHT22;4359;49.358;11.256;2024-03-08T01:58:59;-1.90;99.90
8643;DHT22;4359;49.358;11.256;2024-03-08T02:01:25;-2.10;99.90
8643;DHT22;4359;49.358;11.256;2024-03-08T02:03:50;-1.90;99.90
8643;DHT22;4359;49.358;11.256;2024-03-08T02:06:16;-1.80;99.90
8643;DHT22;4359;49.358;11.256;2024-03-08T02:08:42;-1.50;99.90
8643;DHT22;4359;49.358;11.256;2024-03-08T02:11:09;-1.20;99.90
8643;DHT22;4359;49.358;11.256;2024-03-08T02:13:35;-1.30;99.90
8643;DHT22;4359;49.358;11.256;2024-03-08T02:16:01;-1.30;99.90
8643;DHT22;4359;49.358;11.256;2024-03-08T02:18:28;-1.30;99.90
8643;DHT22;4359;49.358;11.256;2024-03-08T02:20:55;-1.50;99.90
8643;DHT22;4359;49.358;11.256;2024-03-08T02:23:21;-1.70;99.90
8643;DHT22;4359;49.358;11.256;2024-03-08T02:25:48;-1.80;99.90
8643;DHT22;4359;49.358;11.256;2024-03-08T02:28:14;-1.90;99.90
8643;DHT22;4359;49.358;11.256;2024-03-08T02:30:40;-2.10;99.90
8643;DHT22;4359;49.358;11.256;2024-03-08T02:33:06;-2.00;99.90
8643;DHT22;4359;49.358;11.256;2024-03-08T02:35:33;-2.20;99.90
8643;DHT22;4359;49.358;11.256;2024-03-08T02:37:59;-2.30;99.90
8643;DHT22;4359;49.358;11.256;2024-03-08T02:40:25;-2.40;99.90
8643;DHT22;4359;49.358;11.256;2024-03-08T02:42:51;-2.40;99.90
8643;DHT22;4359;49.358;11.256;2024-03-08T02:45:17;-2.30;99.90
8643;DHT22;4359;49.358;11.256;2024-03-08T02:47:42;-2.30;99.90
8643;DHT22;4359;49.358;11.256;2024-03-08T02:50:08;-2.30;99.90
8643;DHT22;4359;49.358;11.256;2024-03-08T02:52:34;-2.20;99.90
8643;DHT22;4359;49.358;11.256;2024-03-08T02:55:01;-2.20;99.90
8643;DHT22;4359;49.358;11.256;2024-03-08T02:57:26;-2.20;99.90
8643;DHT22;4359;49.358;11.256;2024-03-08T02:59:53;-2.20;99.90
8643;DHT22;4359;49.358;11.256;2024-03-08T03:02:19;-2.20;99.90
8643;DHT22;4359;49.358;11.256;2024-03-08T03:04:45;-2.20;99.90
8643;DHT22;4359;49.358;11.256;2024-03-08T03:07:10;-2.10;99.90
8643;DHT22;4359;49.358;11.256;2024-03-08T03:09:36;-2.20;99.90
8643;DHT22;4359;49.358;11.256;2024-03-08T03:12:02;-2.10;99.90
8643;DHT22;4359;49.358;11.256;2024-03-08T03:14:28;-2.00;99.90
8643;DHT22;4359;49.358;11.256;2024-03-08T03:16:54;-2.00;99.90
8643;DHT22;4359;49.358;11.256;2024-03-08T03:19:20;-2.00;99.90
8643;DHT22;4359;49.358;11.256;2024-03-08T03:21:46;-1.90;99.90
8643;DHT22;4359;49.358;11.256;2024-03-08T03:24:12;-1.90;99.90
8643;DHT22;4359;49.358;11.256;2024-03-08T03:26:41;-1.80;99.90
8643;DHT22;4359;49.358;11.256;2024-03-08T03:29:09;-1.80;99.90
8643;DHT22;4359;49.358;11.256;2024-03-08T03:31:36;-1.70;99.90
8643;DHT22;4359;49.358;11.256;2024-03-08T03:34:02;-1.40;99.90
8643;DHT22;4359;49.358;11.256;2024-03-08T03:36:29;-1.20;99.90
8643;DHT22;4359;49.358;11.256;2024-03-08T03:38:55;-1.00;99.90
8643;DHT22;4359;49.358;11.256;2024-03-08T03:41:38;-0.90;99.90
8643;DHT22;4359;49.358;11.256;2024-03-08T03:44:05;-0.80;99.90
8643;DHT22;4359;49.358;11.256;2024-03-08T03:46:32;-0.80;99.90
8643;DHT22;4359;49.358;11.256;2024-03-08T03:48:58;-0.70;99.90
8643;DHT22;4359;49.358;11.256;2024-03-08T03:51:24;-0.70;99.90
8643;DHT22;4359;49.358;11.256;2024-03-08T03:53:49;-0.80;99.90
8643;DHT22;4359;49.358;11.256;2024-03-08T03:56:15;-0.70;99.90
8643;DHT22;4359;49.358;11.256;2024-03-08T03:58:41;-0.70;99.90
8643;DHT22;4359;49.358;11.256;2024-03-08T04:01:07;-0.70;99.90
8643;DHT22;4359;49.358;11.256;2024-03-08T04:03:33;-0.70;99.90
8643;DHT22;4359;49.358;11.256;2024-03-08T04:05:59;-0.70;99.90
8643;DHT22;4359;49.358;11.256;2024-03-08T04:08:24;-0.70;99.90
8643;DHT22;4359;49.358;11.256;2024-03-08T04:10:50;-0.80;99.90
8643;DHT22;4359;49.358;11.256;2024-03-08T04:13:16;-0.90;99.90
8643;DHT22;4359;49.358;11.256;2024-03-08T04:15:42;-0.90;99.90
8643;DHT22;4359;49.358;11.256;2024-03-08T04:18:10;-0.90;99.90
8643;DHT22;4359;49.358;11.256;2024-03-08T04:20:36;-1.00;99.90
8643;DHT22;4359;49.358;11.256;2024-03-08T04:23:02;-1.10;99.90
8643;DHT22;4359;49.358;11.256;2024-03-08T04:25:28;-1.10;99.90
8643;DHT22;4359;49.358;11.256;2024-03-08T04:27:53;-1.30;99.90
8643;DHT22;4359;49.358;11.256;2024-03-08T04:30:19;-1.40;99.90
8643;DHT22;4359;49.358;11.256;2024-03-08T04:32:46;-1.40;99.90
8643;DHT22;4359;49.358;11.256;2024-03-08T04:35:12;-1.50;99.90
8643;DHT22;4359;49.358;11.256;2024-03-08T04:37:38;-1.60;99.90
8643;DHT22;4359;49.358;11.256;2024-03-08T04:40:05;-1.50;99.90
8643;DHT22;4359;49.358;11.256;2024-03-08T04:42:31;-1.30;99.90
8643;DHT22;4359;49.358;11.256;2024-03-08T04:44:58;-1.20;99.90
8643;DHT22;4359;49.358;11.256;2024-03-08T04:47:24;-1.20;99.90
8643;DHT22;4359;49.358;11.256;2024-03-08T04:49:50;-1.10;99.90
8643;DHT22;4359;49.358;11.256;2024-03-08T04:52:16;-0.90;99.90
8643;DHT22;4359;49.358;11.256;2024-03-08T04:54:43;-1.00;99.90
8643;DHT22;4359;49.358;11.256;2024-03-08T04:57:10;-1.10;99.90
8643;DHT22;4359;49.358;11.256;2024-03-08T04:59:36;-0.90;99.90
8643;DHT22;4359;49.358;11.256;2024-03-08T05:02:02;-1.00;99.90
8643;DHT22;4359;49.358;11.256;2024-03-08T05:04:27;-0.90;99.90
8643;DHT22;4359;49.358;11.256;2024-03-08T05:06:54;-1.00;99.90
8643;DHT22;4359;49.358;11.256;2024-03-08T05:09:20;-1.10;99.90
8643;DHT22;4359;49.358;11.256;2024-03-08T05:11:46;-1.10;99.90
8643;DHT22;4359;49.358;11.256;2024-03-08T05:14:13;-0.90;99.90
8643;DHT22;4359;49.358;11.256;2024-03-08T05:16:46;-0.80;99.90
8643;DHT22;4359;49.358;11.256;2024-03-08T05:19:20;-0.70;99.90
8643;DHT22;4359;49.358;11.256;2024-03-08T05:21:47;-0.70;99.90
8643;DHT22;4359;49.358;11.256;2024-03-08T05:24:13;-0.80;99.90
8643;DHT22;4359;49.358;11.256;2024-03-08T05:26:41;-0.80;99.90
8643;DHT22;4359;49.358;11.256;2024-03-08T05:29:07;-0.80;99.90
8643;DHT22;4359;49.358;11.256;2024-03-08T05:31:52;-0.90;99.90
8643;DHT22;4359;49.358;11.256;2024-03-08T05:34:18;-0.90;99.90
8643;DHT22;4359;49.358;11.256;2024-03-08T05:36:45;-0.90;99.90
8643;DHT22;4359;49.358;11.256;2024-03-08T05:39:15;-0.80;99.90
8643;DHT22;4359;49.358;11.256;2024-03-08T05:41:41;-0.70;99.90
8643;DHT22;4359;49.358;11.256;2024-03-08T05:44:07;-0.60;99.90
8643;DHT22;4359;49.358;11.256;2024-03-08T05:46:34;-0.70;99.90
8643;DHT22;4359;49.358;11.256;2024-03-08T05:49:00;-0.70;99.90
8643;DHT22;4359;49.358;11.256;2024-03-08T05:51:25;-0.60;99.90
8643;DHT22;4359;49.358;11.256;2024-03-08T05:53:54;-0.50;99.90
8643;DHT22;4359;49.358;11.256;2024-03-08T05:56:21;-0.60;99.90
8643;DHT22;4359;49.358;11.256;2024-03-08T05:58:48;-0.50;99.90
8643;DHT22;4359;49.358;11.256;2024-03-08T06:01:15;-0.40;99.90
8643;DHT22;4359;49.358;11.256;2024-03-08T06:03:41;-0.20;99.90
8643;DHT22;4359;49.358;11.256;2024-03-08T06:06:13;-0.40;99.90
8643;DHT22;4359;49.358;11.256;2024-03-08T06:08:39;-0.30;99.90
8643;DHT22;4359;49.358;11.256;2024-03-08T06:11:05;-0.30;99.90
8643;DHT22;4359;49.358;11.256;2024-03-08T06:13:31;-0.30;99.90
8643;DHT22;4359;49.358;11.256;2024-03-08T06:15:57;-0.40;99.90
8643;DHT22;4359;49.358;11.256;2024-03-08T06:18:22;-0.40;99.90
8643;DHT22;4359;49.358;11.256;2024-03-08T06:20:48;-0.40;99.90
8643;DHT22;4359;49.358;11.256;2024-03-08T06:23:14;-0.20;99.90
8643;DHT22;4359;49.358;11.256;2024-03-08T06:25:44;-0.20;99.90
8643;DHT22;4359;49.358;11.256;2024-03-08T06:28:10;0.00;99.90
8643;DHT22;4359;49.358;11.256;2024-03-08T06:30:35;0.10;99.90
8643;DHT22;4359;49.358;11.256;2024-03-08T06:33:01;0.10;99.90
8643;DHT22;4359;49.358;11.256;2024-03-08T06:35:27;0.20;99.90
8643;DHT22;4359;49.358;11.256;2024-03-08T06:37:53;0.30;99.90
8643;DHT22;4359;49.358;11.256;2024-03-08T06:40:18;0.50;99.90
8643;DHT22;4359;49.358;11.256;2024-03-08T06:42:44;0.50;99.90
8643;DHT22;4359;49.358;11.256;2024-03-08T06:45:10;0.70;99.90
8643;DHT22;4359;49.358;11.256;2024-03-08T06:47:37;0.90;99.90
8643;DHT22;4359;49.358;11.256;2024-03-08T06:50:03;1.10;99.90
8643;DHT22;4359;49.358;11.256;2024-03-08T06:52:29;1.30;99.90
8643;DHT22;4359;49.358;11.256;2024-03-08T06:54:55;1.70;99.90
8643;DHT22;4359;49.358;11.256;2024-03-08T06:57:22;2.20;99.90
8643;DHT22;4359;49.358;11.256;2024-03-08T06:59:48;2.40;99.90
8643;DHT22;4359;49.358;11.256;2024-03-08T07:02:14;2.50;99.90
8643;DHT22;4359;49.358;11.256;2024-03-08T07:04:40;2.60;99.90
8643;DHT22;4359;49.358;11.256;2024-03-08T07:07:06;2.60;99.90
8643;DHT22;4359;49.358;11.256;2024-03-08T07:09:37;2.70;99.90
8643;DHT22;4359;49.358;11.256;2024-03-08T07:12:03;2.80;99.90
8643;DHT22;4359;49.358;11.256;2024-03-08T07:14:29;2.80;99.90
8643;DHT22;4359;49.358;11.256;2024-03-08T07:16:56;2.80;99.90
8643;DHT22;4359;49.358;11.256;2024-03-08T07:19:22;3.10;99.90
8643;DHT22;4359;49.358;11.256;2024-03-08T07:21:48;3.40;99.90
8643;DHT22;4359;49.358;11.256;2024-03-08T07:24:13;3.50;99.90
8643;DHT22;4359;49.358;11.256;2024-03-08T07:26:43;3.70;99.90
8643;DHT22;4359;49.358;11.256;2024-03-08T07:29:09;3.70;99.90
8643;DHT22;4359;49.358;11.256;2024-03-08T07:31:34;3.80;99.90
8643;DHT22;4359;49.358;11.256;2024-03-08T07:34:03;3.90;99.90
8643;DHT22;4359;49.358;11.256;2024-03-08T07:36:29;3.80;99.90
8643;DHT22;4359;49.358;11.256;2024-03-08T07:38:54;4.00;99.90
8643;DHT22;4359;49.358;11.256;2024-03-08T07:41:20;4.20;99.90
8643;DHT22;4359;49.358;11.256;2024-03-08T07:43:46;4.10;99.90
8643;DHT22;4359;49.358;11.256;2024-03-08T07:46:11;4.30;99.90
8643;DHT22;4359;49.358;11.256;2024-03-08T07:48:38;4.70;99.90
8643;DHT22;4359;49.358;11.256;2024-03-08T07:51:05;4.60;99.90
8643;DHT22;4359;49.358;11.256;2024-03-08T07:53:31;4.90;99.90
8643;DHT22;4359;49.358;11.256;2024-03-08T07:55:56;5.00;99.90
8643;DHT22;4359;49.358;11.256;2024-03-08T07:58:22;4.80;99.90
8643;DHT22;4359;49.358;11.256;2024-03-08T08:00:49;4.60;99.90
8643;DHT22;4359;49.358;11.256;2024-03-08T08:03:15;4.60;99.90
8643;DHT22;4359;49.358;11.256;2024-03-08T08:05:41;4.80;99.90
8643;DHT22;4359;49.358;11.256;2024-03-08T08:08:07;5.10;99.90
8643;DHT22;4359;49.358;11.256;2024-03-08T08:10:33;5.20;99.90
8643;DHT22;4359;49.358;11.256;2024-03-08T08:12:59;5.20;99.90
8643;DHT22;4359;49.358;11.256;2024-03-08T08:15:24;5.30;99.90
8643;DHT22;4359;49.358;11.256;2024-03-08T08:17:50;5.70;99.90
8643;DHT22;4359;49.358;11.256;2024-03-08T08:20:17;5.80;99.90
8643;DHT22;4359;49.358;11.256;2024-03-08T08:22:44;5.90;99.90
8643;DHT22;4359;49.358;11.256;2024-03-08T08:25:10;5.60;99.90
8643;DHT22;4359;49.358;11.256;2024-03-08T08:27:38;5.60;99.90
8643;DHT22;4359;49.358;11.256;2024-03-08T08:30:10;5.90;99.90
8643;DHT22;4359;49.358;11.256;2024-03-08T08:32:37;6.00;99.90
8643;DHT22;4359;49.358;11.256;2024-03-08T08:35:03;6.20;99.90
8643;DHT22;4359;49.358;11.256;2024-03-08T08:37:30;6.30;99.90
8643;DHT22;4359;49.358;11.256;2024-03-08T08:39:57;6.20;99.90
8643;DHT22;4359;49.358;11.256;2024-03-08T08:42:23;6.30;99.90
8643;DHT22;4359;49.358;11.256;2024-03-08T08:44:49;6.30;99.90
8643;DHT22;4359;49.358;11.256;2024-03-08T08:47:16;6.40;99.90
8643;DHT22;4359;49.358;11.256;2024-03-08T08:49:44;6.60;99.90
8643;DHT22;4359;49.358;11.256;2024-03-08T08:52:12;6.70;99.90
8643;DHT22;4359;49.358;11.256;2024-03-08T08:54:37;7.00;99.90
8643;DHT22;4359;49.358;11.256;2024-03-08T08:57:03;7.00;99.90
8643;DHT22;4359;49.358;11.256;2024-03-08T08:59:33;6.90;99.90
8643;DHT22;4359;49.358;11.256;2024-03-08T09:02:01;7.10;99.90
8643;DHT22;4359;49.358;11.256;2024-03-08T09:04:29;7.40;99.90
8643;DHT22;4359;49.358;11.256;2024-03-08T09:06:54;7.30;99.90
8643;DHT22;4359;49.358;11.256;2024-03-08T09:09:20;7.20;99.90
8643;DHT22;4359;49.358;11.256;2024-03-08T09:11:47;7.10;99.90
8643;DHT22;4359;49.358;11.256;2024-03-08T09:14:13;6.90;99.90
8643;DHT22;4359;49.358;11.256;2024-03-08T09:16:39;7.00;99.90
8643;DHT22;4359;49.358;11.256;2024-03-08T09:19:05;7.30;99.90
8643;DHT22;4359;49.358;11.256;2024-03-08T09:21:32;7.20;99.90
8643;DHT22;4359;49.358;11.256;2024-03-08T09:23:58;7.20;99.90
8643;DHT22;4359;49.358;11.256;2024-03-08T09:26:24;7.70;99.90
8643;DHT22;4359;49.358;11.256;2024-03-08T09:28:49;8.20;99.90
8643;DHT22;4359;49.358;11.256;2024-03-08T09:31:15;8.40;99.90
8643;DHT22;4359;49.358;11.256;2024-03-08T09:33:42;8.10;99.90
8643;DHT22;4359;49.358;11.256;2024-03-08T09:36:08;7.80;99.90
8643;DHT22;4359;49.358;11.256;2024-03-08T09:38:34;8.00;99.90
8643;DHT22;4359;49.358;11.256;2024-03-08T09:41:02;7.90;99.90
8643;DHT22;4359;49.358;11.256;2024-03-08T09:43:29;8.10;99.90
8643;DHT22;4359;49.358;11.256;2024-03-08T09:45:57;8.20;99.90
8643;DHT22;4359;49.358;11.256;2024-03-08T09:48:23;8.30;99.90
8643;DHT22;4359;49.358;11.256;2024-03-08T09:50:49;8.10;99.90
8643;DHT22;4359;49.358;11.256;2024-03-08T09:53:15;7.70;99.90
8643;DHT22;4359;49.358;11.256;2024-03-08T09:55:42;7.70;99.90
8643;DHT22;4359;49.358;11.256;2024-03-08T09:58:11;7.60;99.90
8643;DHT22;4359;49.358;11.256;2024-03-08T10:00:43;7.60;99.90
8643;DHT22;4359;49.358;11.256;2024-03-08T10:03:09;7.80;99.90
8643;DHT22;4359;49.358;11.256;2024-03-08T10:05:36;7.80;99.90
8643;DHT22;4359;49.358;11.256;2024-03-08T10:08:02;7.80;99.90
8643;DHT22;4359;49.358;11.256;2024-03-08T10:10:28;8.20;99.90
8643;DHT22;4359;49.358;11.256;2024-03-08T10:12:55;8.40;99.90
8643;DHT22;4359;49.358;11.256;2024-03-08T10:15:21;8.50;99.90
8643;DHT22;4359;49.358;11.256;2024-03-08T10:17:46;8.70;99.90
8643;DHT22;4359;49.358;11.256;2024-03-08T10:20:16;8.80;99.90
8643;DHT22;4359;49.358;11.256;2024-03-08T10:22:42;9.10;99.90
8643;DHT22;4359;49.358;11.256;2024-03-08T10:25:11;9.50;99.90
8643;DHT22;4359;49.358;11.256;2024-03-08T10:27:38;9.40;99.90
8643;DHT22;4359;49.358;11.256;2024-03-08T10:30:08;9.40;99.90
8643;DHT22;4359;49.358;11.256;2024-03-08T10:32:35;9.30;99.90
8643;DHT22;4359;49.358;11.256;2024-03-08T10:35:01;8.90;99.90
8643;DHT22;4359;49.358;11.256;2024-03-08T10:37:27;9.10;99.90
8643;DHT22;4359;49.358;11.256;2024-03-08T10:40:05;9.50;99.90
8643;DHT22;4359;49.358;11.256;2024-03-08T10:45:39;9.80;99.90
8643;DHT22;4359;49.358;11.256;2024-03-08T10:48:27;9.60;99.90
8643;DHT22;4359;49.358;11.256;2024-03-08T10:50:53;9.60;99.90
8643;DHT22;4359;49.358;11.256;2024-03-08T10:53:20;9.60;99.90
8643;DHT22;4359;49.358;11.256;2024-03-08T10:55:49;9.70;99.90
8643;DHT22;4359;49.358;11.256;2024-03-08T10:58:24;9.80;99.90
8643;DHT22;4359;49.358;11.256;2024-03-08T11:00:53;9.80;99.90
8643;DHT22;4359;49.358;11.256;2024-03-08T11:06:17;9.80;99.90
8643;DHT22;4359;49.358;11.256;2024-03-08T11:08:44;9.90;99.90
8643;DHT22;4359;49.358;11.256;2024-03-08T11:13:53;9.90;99.90
8643;DHT22;4359;49.358;11.256;2024-03-08T11:19:46;10.40;99.90
8643;DHT22;4359;49.358;11.256;2024-03-08T11:22:27;10.30;99.90
8643;DHT22;4359;49.358;11.256;2024-03-08T11:24:53;10.40;99.90
8643;DHT22;4359;49.358;11.256;2024-03-08T11:40:52;11.30;99.90
8643;DHT22;4359;49.358;11.256;2024-03-08T11:43:18;10.70;99.90
8643;DHT22;4359;49.358;11.256;2024-03-08T11:45:45;10.80;99.90
8643;DHT22;4359;49.358;11.256;2024-03-08T11:48:10;10.80;99.90
8643;DHT22;4359;49.358;11.256;2024-03-08T11:50:38;10.90;99.90
8643;DHT22;4359;49.358;11.256;2024-03-08T11:53:04;10.60;99.90
8643;DHT22;4359;49.358;11.256;2024-03-08T11:55:34;10.60;99.90
8643;DHT22;4359;49.358;11.256;2024-03-08T11:58:05;10.70;99.90
8643;DHT22;4359;49.358;11.256;2024-03-08T12:00:33;11.00;99.90
8643;DHT22;4359;49.358;11.256;2024-03-08T12:03:05;11.10;99.90
8643;DHT22;4359;49.358;11.256;2024-03-08T12:05:31;11.30;99.90
8643;DHT22;4359;49.358;11.256;2024-03-08T12:07:58;11.50;99.90
8643;DHT22;4359;49.358;11.256;2024-03-08T12:10:24;11.70;99.90
8643;DHT22;4359;49.358;11.256;2024-03-08T12:12:52;11.60;99.90
8643;DHT22;4359;49.358;11.256;2024-03-08T12:15:22;11.30;99.90
8643;DHT22;4359;49.358;11.256;2024-03-08T12:17:52;11.30;99.90
8643;DHT22;4359;49.358;11.256;2024-03-08T12:40:32;12.30;99.90
8643;DHT22;4359;49.358;11.256;2024-03-08T12:43:00;12.30;99.90
8643;DHT22;4359;49.358;11.256;2024-03-08T13:09:01;12.30;99.90
8643;DHT22;4359;49.358;11.256;2024-03-08T13:11:31;12.20;99.90
8643;DHT22;4359;49.358;11.256;2024-03-08T13:14:02;12.00;99.90
8643;DHT22;4359;49.358;11.256;2024-03-08T13:16:29;12.00;99.90
8643;DHT22;4359;49.358;11.256;2024-03-08T13:18:55;12.10;99.90
8643;DHT22;4359;49.358;11.256;2024-03-08T13:21:22;11.90;99.90
8643;DHT22;4359;49.358;11.256;2024-03-08T13:23:49;11.60;99.90
8643;DHT22;4359;49.358;11.256;2024-03-08T13:26:15;11.90;99.90
8643;DHT22;4359;49.358;11.256;2024-03-08T13:32:03;12.70;99.90
8643;DHT22;4359;49.358;11.256;2024-03-08T13:34:31;12.50;99.90
8643;DHT22;4359;49.358;11.256;2024-03-08T13:37:00;12.40;99.90
8643;DHT22;4359;49.358;11.256;2024-03-08T13:39:26;12.40;99.90
8643;DHT22;4359;49.358;11.256;2024-03-08T13:41:51;12.50;99.90
8643;DHT22;4359;49.358;11.256;2024-03-08T13:44:17;12.50;99.90
8643;DHT22;4359;49.358;11.256;2024-03-08T13:46:43;12.20;99.90
8643;DHT22;4359;49.358;11.256;2024-03-08T13:49:08;12.10;99.90
8643;DHT22;4359;49.358;11.256;2024-03-08T14:05:04;12.40;99.90
8643;DHT22;4359;49.358;11.256;2024-03-08T14:07:29;12.40;99.90
8643;DHT22;4359;49.358;11.256;2024-03-08T14:09:55;12.40;99.90
8643;DHT22;4359;49.358;11.256;2024-03-08T14:12:21;12.20;99.90
8643;DHT22;4359;49.358;11.256;2024-03-08T14:14:46;12.10;99.90
8643;DHT22;4359;49.358;11.256;2024-03-08T14:17:12;12.20;99.90
8643;DHT22;4359;49.358;11.256;2024-03-08T14:19:43;12.10;99.90
8643;DHT22;4359;49.358;11.256;2024-03-08T14:22:08;12.30;99.90
8643;DHT22;4359;49.358;11.256;2024-03-08T14:24:37;12.30;99.90
8643;DHT22;4359;49.358;11.256;2024-03-08T14:27:05;12.30;99.90
8643;DHT22;4359;49.358;11.256;2024-03-08T14:29:34;12.00;99.90
8643;DHT22;4359;49.358;11.256;2024-03-08T14:31:59;11.80;99.90
8643;DHT22;4359;49.358;11.256;2024-03-08T14:34:26;11.70;99.90
8643;DHT22;4359;49.358;11.256;2024-03-08T14:36:56;11.50;99.90
8643;DHT22;4359;49.358;11.256;2024-03-08T14:39:22;11.10;99.90
8643;DHT22;4359;49.358;11.256;2024-03-08T14:41:52;10.90;99.90
8643;DHT22;4359;49.358;11.256;2024-03-08T14:44:19;10.90;99.90
8643;DHT22;4359;49.358;11.256;2024-03-08T14:46:45;10.80;99.90
8643;DHT22;4359;49.358;11.256;2024-03-08T14:49:12;10.80;99.90
8643;DHT22;4359;49.358;11.256;2024-03-08T14:51:37;10.70;99.90
8643;DHT22;4359;49.358;11.256;2024-03-08T14:54:03;10.60;99.90
8643;DHT22;4359;49.358;11.256;2024-03-08T14:56:33;10.60;99.90
8643;DHT22;4359;49.358;11.256;2024-03-08T14:58:59;10.60;99.90
8643;DHT22;4359;49.358;11.256;2024-03-08T15:01:25;10.70;99.90
8643;DHT22;4359;49.358;11.256;2024-03-08T15:03:55;10.70;99.90
8643;DHT22;4359;49.358;11.256;2024-03-08T15:06:21;10.60;99.90
8643;DHT22;4359;49.358;11.256;2024-03-08T15:08:47;10.60;99.90
8643;DHT22;4359;49.358;11.256;2024-03-08T15:11:13;10.50;99.90
8643;DHT22;4359;49.358;11.256;2024-03-08T15:13:47;10.50;99.90
8643;DHT22;4359;49.358;11.256;2024-03-08T15:16:16;10.50;99.90
8643;DHT22;4359;49.358;11.256;2024-03-08T15:18:44;10.50;99.90
8643;DHT22;4359;49.358;11.256;2024-03-08T15:21:14;10.40;99.90
8643;DHT22;4359;49.358;11.256;2024-03-08T15:23:50;10.30;99.90
8643;DHT22;4359;49.358;11.256;2024-03-08T15:26:17;10.30;99.90
8643;DHT22;4359;49.358;11.256;2024-03-08T15:28:44;10.50;99.90
8643;DHT22;4359;49.358;11.256;2024-03-08T15:31:11;10.60;99.90
8643;DHT22;4359;49.358;11.256;2024-03-08T15:33:39;10.60;99.90
8643;DHT22;4359;49.358;11.256;2024-03-08T15:36:14;10.50;99.90
8643;DHT22;4359;49.358;11.256;2024-03-08T15:38:41;10.40;99.90
8643;DHT22;4359;49.358;11.256;2024-03-08T15:41:09;10.20;99.90
8643;DHT22;4359;49.358;11.256;2024-03-08T15:43:41;10.20;99.90
8643;DHT22;4359;49.358;11.256;2024-03-08T15:46:08;10.00;99.90
8643;DHT22;4359;49.358;11.256;2024-03-08T15:48:35;9.80;99.90
8643;DHT22;4359;49.358;11.256;2024-03-08T15:51:04;9.70;99.90
8643;DHT22;4359;49.358;11.256;2024-03-08T15:53:35;9.50;99.90
8643;DHT22;4359;49.358;11.256;2024-03-08T15:56:05;9.40;99.90
8643;DHT22;4359;49.358;11.256;2024-03-08T15:58:37;9.30;99.90
8643;DHT22;4359;49.358;11.256;2024-03-08T16:01:03;9.30;99.90
8643;DHT22;4359;49.358;11.256;2024-03-08T16:03:32;9.20;99.90
8643;DHT22;4359;49.358;11.256;2024-03-08T16:05:58;9.20;99.90
8643;DHT22;4359;49.358;11.256;2024-03-08T16:08:24;9.10;99.90
8643;DHT22;4359;49.358;11.256;2024-03-08T16:10:51;9.10;99.90
8643;DHT22;4359;49.358;11.256;2024-03-08T16:13:22;9.10;99.90
8643;DHT22;4359;49.358;11.256;2024-03-08T16:15:49;9.00;99.90
8643;DHT22;4359;49.358;11.256;2024-03-08T16:18:16;9.00;99.90
8643;DHT22;4359;49.358;11.256;2024-03-08T16:20:42;8.90;99.90
8643;DHT22;4359;49.358;11.256;2024-03-08T16:23:17;8.80;99.90
8643;DHT22;4359;49.358;11.256;2024-03-08T16:25:43;8.80;99.90
8643;DHT22;4359;49.358;11.256;2024-03-08T16:28:10;8.70;99.90
8643;DHT22;4359;49.358;11.256;2024-03-08T16:30:43;8.60;99.90
8643;DHT22;4359;49.358;11.256;2024-03-08T16:33:13;8.60;99.90
8643;DHT22;4359;49.358;11.256;2024-03-08T16:35:40;8.50;99.90
8643;DHT22;4359;49.358;11.256;2024-03-08T16:38:09;8.50;99.90
8643;DHT22;4359;49.358;11.256;2024-03-08T16:40:39;8.40;99.90
8643;DHT22;4359;49.358;11.256;2024-03-08T16:43:05;8.40;99.90
8643;DHT22;4359;49.358;11.256;2024-03-08T16:45:31;8.30;99.90
8643;DHT22;4359;49.358;11.256;2024-03-08T16:47:56;8.30;99.90
8643;DHT22;4359;49.358;11.256;2024-03-08T16:50:22;8.20;99.90
8643;DHT22;4359;49.358;11.256;2024-03-08T16:52:52;8.20;99.90
8643;DHT22;4359;49.358;11.256;2024-03-08T16:55:18;8.10;99.90
8643;DHT22;4359;49.358;11.256;2024-03-08T16:57:45;8.10;99.90
8643;DHT22;4359;49.358;11.256;2024-03-08T17:00:15;8.00;99.90
8643;DHT22;4359;49.358;11.256;2024-03-08T17:02:47;7.90;99.90
8643;DHT22;4359;49.358;11.256;2024-03-08T17:05:14;7.70;99.90
8643;DHT22;4359;49.358;11.256;2024-03-08T17:07:48;7.60;99.90
8643;DHT22;4359;49.358;11.256;2024-03-08T17:10:18;7.50;99.90
8643;DHT22;4359;49.358;11.256;2024-03-08T17:12:45;7.40;99.90
8643;DHT22;4359;49.358;11.256;2024-03-08T17:15:14;7.30;99.90
8643;DHT22;4359;49.358;11.256;2024-03-08T17:17:40;7.40;99.90